Captain Jimmy T Moran — WDE6653 — position and weather

sailwx.info

Track history (hours):
 
Tides and Currents Weather Stations Pressure Air Temp Water Temp Dewpoint Dewpoint Depression Visibility Wind Speed Wind Dir Waves Ship Positions

Captain Jimmy T Moran

Owner: Moran Towing Corp, New Cannan, CT. More information available from US FCC via Universal Licensing System and Coast Guard Vessel Documentation Center.

Last reported at 2015-Mar-06 02:04 UTC. Time now 2015-Mar-06 20:13 UTC.
Position N 29°55' W 090°08'.

Length 26 m; draft 4.9 m.

Type: Tug. MMSI: 367382920.

Date/timePositionNaut miles runAvg speedWind from/ knotsBaromVisibWave heightAir tempDewpointWater temp
2015-Mar-06 02:04N 29°55' W 090°08'4 6.1
2015-Mar-06 01:22N 29°57' W 090°04'2 1.7
2015-Mar-06 00:04N 29°58' W 090°02'2 0.2
2015-Mar-05 17:23N 29°60' W 090°01'2 2.6
2015-Mar-05 16:30N 29°57' W 090°02'3 0.5
2015-Mar-05 10:23N 29°55' W 090°04'0 0.0
2015-Mar-05 09:19N 29°55' W 090°04'0 0.0
2015-Mar-05 07:27N 29°55' W 090°04'0 0.0
2015-Mar-05 06:32N 29°55' W 090°04'0 0.0
2015-Mar-05 05:10N 29°55' W 090°04'0 0.0
2015-Mar-05 04:30N 29°55' W 090°04'0 0.0
2015-Mar-05 03:23N 29°55' W 090°04'0 0.0
2015-Mar-05 02:33N 29°55' W 090°04'0 0.0
2015-Mar-05 01:33N 29°55' W 090°04'0 0.0
2015-Mar-05 00:33N 29°55' W 090°04'0 0.0
2015-Mar-04 23:27N 29°55' W 090°04'0 0.1
2015-Mar-04 22:20N 29°55' W 090°04'6 5.9
2015-Mar-04 21:21N 29°55' W 089°58'5 0.2
2015-Mar-03 22:31N 29°56' W 090°04'3 2.8
2015-Mar-03 21:25N 29°56' W 090°00'  
2015-Mar-01 00:31N 29°57' W 090°01'5 0.2
2015-Feb-28 03:23N 29°55' W 090°06'2 0.3
2015-Feb-27 21:33N 29°55' W 090°08'2 0.2
2015-Feb-27 13:04N 29°55' W 090°07'0 0.1
2015-Feb-27 12:12N 29°55' W 090°07'1 0.1
2015-Feb-27 05:29N 29°55' W 090°06'0 0.0
2015-Feb-27 04:23N 29°55' W 090°06'0 0.0
2015-Feb-27 00:18N 29°55' W 090°06'0 0.0
2015-Feb-26 22:16N 29°55' W 090°06'1 0.5
2015-Feb-26 21:10N 29°55' W 090°05'1 0.8
2015-Feb-26 20:31N 29°55' W 090°06'0 0.0
2015-Feb-26 00:19N 29°55' W 090°06'1 0.1
2015-Feb-25 18:13N 29°55' W 090°06'1 0.1
2015-Feb-25 09:32N 29°55' W 090°06'0 0.0
2015-Feb-25 06:12N 29°55' W 090°07'1 0.0
2015-Feb-24 12:13N 29°55' W 090°06'1 0.2
2015-Feb-24 09:09N 29°55' W 090°05'1 1.4
2015-Feb-24 08:18N 29°55' W 090°06'0 0.2
2015-Feb-24 07:16N 29°55' W 090°06'0 0.0
2015-Feb-24 05:05N 29°55' W 090°06'0 0.1
2015-Feb-24 02:11N 29°55' W 090°07'  
Track history (hours):
 
Tides and Currents Weather Stations Pressure Air Temp Water Temp Dewpoint Dewpoint Depression Visibility Wind Speed Wind Dir Waves Ship Positions

Captain Jimmy T Moran

Owner: Moran Towing Corp, New Cannan, CT. More information available from US FCC via Universal Licensing System and Coast Guard Vessel Documentation Center.

Last reported at 2015-Mar-06 02:04 UTC. Time now 2015-Mar-06 20:13 UTC.
Position N 29°55' W 090°08'.

Length 26 m; draft 4.9 m.

Type: Tug. MMSI: 367382920.

Date/timePositionNaut miles runAvg speedWind from/ knotsBaromVisibWave heightAir tempDewpointWater temp
2015-Mar-06 02:04N 29°55' W 090°08'4 6.1
2015-Mar-06 01:22N 29°57' W 090°04'2 1.7
2015-Mar-06 00:04N 29°58' W 090°02'2 0.2
2015-Mar-05 17:23N 29°60' W 090°01'2 2.6
2015-Mar-05 16:30N 29°57' W 090°02'3 0.5
2015-Mar-05 10:23N 29°55' W 090°04'0 0.0
2015-Mar-05 09:19N 29°55' W 090°04'0 0.0
2015-Mar-05 07:27N 29°55' W 090°04'0 0.0
2015-Mar-05 06:32N 29°55' W 090°04'0 0.0
2015-Mar-05 05:10N 29°55' W 090°04'0 0.0
2015-Mar-05 04:30N 29°55' W 090°04'0 0.0
2015-Mar-05 03:23N 29°55' W 090°04'0 0.0
2015-Mar-05 02:33N 29°55' W 090°04'0 0.0
2015-Mar-05 01:33N 29°55' W 090°04'0 0.0
2015-Mar-05 00:33N 29°55' W 090°04'0 0.0
2015-Mar-04 23:27N 29°55' W 090°04'0 0.1
2015-Mar-04 22:20N 29°55' W 090°04'6 5.9
2015-Mar-04 21:21N 29°55' W 089°58'5 0.2
2015-Mar-03 22:31N 29°56' W 090°04'3 2.8
2015-Mar-03 21:25N 29°56' W 090°00'  
2015-Mar-01 00:31N 29°57' W 090°01'5 0.2
2015-Feb-28 03:23N 29°55' W 090°06'2 0.3
2015-Feb-27 21:33N 29°55' W 090°08'2 0.2
2015-Feb-27 13:04N 29°55' W 090°07'0 0.1
2015-Feb-27 12:12N 29°55' W 090°07'1 0.1
2015-Feb-27 05:29N 29°55' W 090°06'0 0.0
2015-Feb-27 04:23N 29°55' W 090°06'0 0.0
2015-Feb-27 00:18N 29°55' W 090°06'0 0.0
2015-Feb-26 22:16N 29°55' W 090°06'1 0.5
2015-Feb-26 21:10N 29°55' W 090°05'1 0.8
2015-Feb-26 20:31N 29°55' W 090°06'0 0.0
2015-Feb-26 00:19N 29°55' W 090°06'1 0.1
2015-Feb-25 18:13N 29°55' W 090°06'1 0.1
2015-Feb-25 09:32N 29°55' W 090°06'0 0.0
2015-Feb-25 06:12N 29°55' W 090°07'1 0.0
2015-Feb-24 12:13N 29°55' W 090°06'1 0.2
2015-Feb-24 09:09N 29°55' W 090°05'1 1.4
2015-Feb-24 08:18N 29°55' W 090°06'0 0.2
2015-Feb-24 07:16N 29°55' W 090°06'0 0.0
2015-Feb-24 05:05N 29°55' W 090°06'0 0.1
2015-Feb-24 02:11N 29°55' W 090°07'  

Dump ship's entire track history